Time;durP1;ratioP1;P1;durP2;ratioP2;P2;SDS_P1;SDS_P2;PMS_P1;PMS_P2;Temp;Humidity;BMP_temperature;BMP_pressure;BME280_temperature;BME280_humidity;BME280_pressure;Samples;Min_cycle;Max_cycle;Signal;HPM_P1;HPM_P2
2021/07/25 00:00:57;;;;;;;9.98;9.00;;;;;;;;;;6301717;22;19995;-43
2021/07/25 00:03:22;;;;;;;14.35;7.78;;;;;;;;;;6302015;22;19995;-45
2021/07/25 00:05:48;;;;;;;11.45;7.95;;;;;;;;;;6301609;22;20026;-49
2021/07/25 00:08:13;;;;;;;8.50;6.05;;;;;;;;;;6301649;22;20318;-45
2021/07/25 00:10:42;;;;;;;18.02;7.40;;;;;;;;;;6302319;22;20030;-47
2021/07/25 00:13:08;;;;;;;14.50;6.50;;;;;;;;;;6301966;22;20074;-47
2021/07/25 00:15:33;;;;;;;11.88;6.47;;;;;;;;;;6301829;22;20030;-44
2021/07/25 00:17:59;;;;;;;17.98;7.40;;;;;;;;;;6301533;22;20118;-48
2021/07/25 00:20:24;;;;;;;21.55;7.18;;;;;;;;;;6302152;22;20034;-46
2021/07/25 00:22:49;;;;;;;9.93;7.57;;;;;;;;;;6301946;22;20631;-46
2021/07/25 00:25:20;;;;;;;9.70;6.75;;;;;;;;;;6301713;22;20081;-43
2021/07/25 00:27:52;;;;;;;10.95;7.35;;;;;;;;;;6301609;22;19992;-44
2021/07/25 00:30:17;;;;;;;8.40;6.57;;;;;;;;;;6302254;22;20036;-47
2021/07/25 00:32:46;;;;;;;13.00;7.65;;;;;;;;;;6301898;22;20003;-45
2021/07/25 00:35:12;;;;;;;9.88;7.97;;;;;;;;;;6302070;22;20006;-47
2021/07/25 00:37:42;;;;;;;14.55;6.75;;;;;;;;;;6301519;22;20002;-45
2021/07/25 00:40:09;;;;;;;7.72;5.70;;;;;;;;;;6301655;22;20472;-43
2021/07/25 00:42:38;;;;;;;10.93;7.70;;;;;;;;;;6301586;22;20367;-45
2021/07/25 00:45:04;;;;;;;13.70;8.23;;;;;;;;;;6301781;22;19995;-42
2021/07/25 00:47:29;;;;;;;11.73;6.78;;;;;;;;;;6301929;22;20081;-43
2021/07/25 00:49:54;;;;;;;22.80;7.60;;;;;;;;;;6301535;22;20433;-44
2021/07/25 00:52:20;;;;;;;15.38;7.47;;;;;;;;;;6301774;22;20003;-42
2021/07/25 00:54:45;;;;;;;10.32;7.03;;;;;;;;;;6301660;22;20036;-42
2021/07/25 00:57:10;;;;;;;11.10;6.43;;;;;;;;;;6301932;22;20075;-42
2021/07/25 00:59:36;;;;;;;8.13;6.20;;;;;;;;;;6302317;22;19995;-42
2021/07/25 01:02:01;;;;;;;9.93;6.70;;;;;;;;;;6301698;22;20472;-43
2021/07/25 01:04:45;;;;;;;8.20;6.22;;;;;;;;;;6301794;22;19991;-42
2021/07/25 01:07:21;;;;;;;12.63;7.20;;;;;;;;;;6301792;22;20006;-41
2021/07/25 01:10:06;;;;;;;15.02;7.90;;;;;;;;;;6301615;22;19995;-41
2021/07/25 01:12:52;;;;;;;21.95;7.90;;;;;;;;;;6301087;22;20040;-41
2021/07/25 01:15:18;;;;;;;11.65;7.55;;;;;;;;;;6284538;22;20003;-42
2021/07/25 01:17:43;;;;;;;15.77;6.57;;;;;;;;;;6299911;22;20037;-43
2021/07/25 01:20:10;;;;;;;29.42;7.70;;;;;;;;;;6300892;22;20018;-42
2021/07/25 01:22:40;;;;;;;15.90;6.68;;;;;;;;;;6301378;22;20003;-41
2021/07/25 01:25:06;;;;;;;12.20;6.40;;;;;;;;;;6300835;22;19992;-42
2021/07/25 01:27:35;;;;;;;8.55;6.45;;;;;;;;;;6300628;22;20003;-41
2021/07/25 01:30:02;;;;;;;14.68;7.05;;;;;;;;;;6301162;22;19998;-44
2021/07/25 01:32:28;;;;;;;12.00;7.25;;;;;;;;;;6301208;22;20034;-41
2021/07/25 01:34:55;;;;;;;19.02;7.45;;;;;;;;;;6301255;22;20056;-41
2021/07/25 01:37:20;;;;;;;13.05;9.10;;;;;;;;;;6301180;22;20007;-43
2021/07/25 01:39:46;;;;;;;11.98;8.13;;;;;;;;;;6301669;22;20305;-42
2021/07/25 01:42:11;;;;;;;18.90;7.07;;;;;;;;;;6301428;22;20418;-42
2021/07/25 01:44:36;;;;;;;9.80;7.13;;;;;;;;;;6301371;22;20404;-42
2021/07/25 01:47:02;;;;;;;6.22;5.40;;;;;;;;;;6300951;22;20048;-43
2021/07/25 01:49:27;;;;;;;20.98;8.02;;;;;;;;;;6301441;22;20086;-47
2021/07/25 01:51:52;;;;;;;23.00;7.28;;;;;;;;;;6301657;22;20467;-41
2021/07/25 01:54:18;;;;;;;15.63;8.15;;;;;;;;;;6301528;22;20637;-42
2021/07/25 01:56:43;;;;;;;12.93;7.57;;;;;;;;;;6301370;22;20412;-43
2021/07/25 01:59:08;;;;;;;10.95;7.55;;;;;;;;;;6300998;22;20010;-42
2021/07/25 02:01:33;;;;;;;12.85;8.48;;;;;;;;;;6301348;22;19996;-42
2021/07/25 02:04:01;;;;;;;14.02;6.78;;;;;;;;;;6301414;22;20437;-43
2021/07/25 02:06:26;;;;;;;7.32;6.45;;;;;;;;;;6301175;22;19995;-40
2021/07/25 02:08:51;;;;;;;19.27;6.68;;;;;;;;;;6300925;22;20008;-41
2021/07/25 02:11:18;;;;;;;16.70;6.30;;;;;;;;;;6301498;22;20003;-41
2021/07/25 02:13:43;;;;;;;8.60;5.80;;;;;;;;;;6301325;22;20006;-43
2021/07/25 02:16:08;;;;;;;13.80;6.65;;;;;;;;;;6300990;22;20007;-43
2021/07/25 02:18:34;;;;;;;9.88;7.53;;;;;;;;;;6301030;22;20047;-42
2021/07/25 02:20:59;;;;;;;18.80;6.15;;;;;;;;;;6301428;22;20031;-41
2021/07/25 02:23:24;;;;;;;13.98;7.07;;;;;;;;;;6301341;22;20302;-43
2021/07/25 02:25:50;;;;;;;9.18;8.18;;;;;;;;;;6300674;22;20003;-42
2021/07/25 02:28:15;;;;;;;6.70;6.00;;;;;;;;;;6301024;22;19992;-43
2021/07/25 02:30:40;;;;;;;10.43;7.80;;;;;;;;;;6302771;22;20505;-45
2021/07/25 02:33:06;;;;;;;15.15;8.02;;;;;;;;;;6303285;22;20018;-46
2021/07/25 02:35:31;;;;;;;12.98;8.27;;;;;;;;;;6303272;22;20479;-41
2021/07/25 02:37:57;;;;;;;8.57;7.72;;;;;;;;;;6302789;22;20433;-41
2021/07/25 02:40:22;;;;;;;10.60;7.60;;;;;;;;;;6302766;22;20335;-42
2021/07/25 02:42:48;;;;;;;13.82;8.13;;;;;;;;;;6302792;22;19995;-43
2021/07/25 02:45:13;;;;;;;10.48;7.38;;;;;;;;;;6302955;22;20005;-41
2021/07/25 02:47:38;;;;;;;13.98;9.50;;;;;;;;;;6302856;22;20419;-41
2021/07/25 02:50:04;;;;;;;16.50;9.57;;;;;;;;;;6302654;22;20044;-41
2021/07/25 02:52:30;;;;;;;15.27;9.52;;;;;;;;;;6302559;22;20148;-41
2021/07/25 02:54:55;;;;;;;11.77;9.10;;;;;;;;;;6302307;22;19995;-42
2021/07/25 02:57:20;;;;;;;16.45;8.90;;;;;;;;;;6302912;22;20005;-41
2021/07/25 02:59:46;;;;;;;10.98;7.78;;;;;;;;;;6303018;22;19995;-42
2021/07/25 03:02:11;;;;;;;9.73;7.15;;;;;;;;;;6302590;22;19995;-42
2021/07/25 03:04:36;;;;;;;14.50;9.27;;;;;;;;;;6302684;22;19995;-41
2021/07/25 03:07:02;;;;;;;15.65;8.23;;;;;;;;;;6302819;22;20450;-44
2021/07/25 03:09:27;;;;;;;13.02;8.98;;;;;;;;;;6302463;22;19999;-47
2021/07/25 03:11:52;;;;;;;12.75;7.05;;;;;;;;;;6302794;22;20003;-42
2021/07/25 03:14:17;;;;;;;12.02;7.18;;;;;;;;;;6302680;22;20074;-41
2021/07/25 03:16:44;;;;;;;13.85;6.95;;;;;;;;;;6302231;22;20085;-41
2021/07/25 03:19:09;;;;;;;7.22;5.43;;;;;;;;;;6302623;22;20007;-44
2021/07/25 03:21:35;;;;;;;15.52;7.47;;;;;;;;;;6302272;22;19999;-41
2021/07/25 03:24:00;;;;;;;24.38;7.70;;;;;;;;;;6302450;22;19999;-41
2021/07/25 03:26:26;;;;;;;10.48;7.07;;;;;;;;;;6302512;22;20055;-42
2021/07/25 03:28:51;;;;;;;8.75;7.28;;;;;;;;;;6302512;22;20014;-42
2021/07/25 03:31:16;;;;;;;11.05;8.07;;;;;;;;;;6302140;22;20677;-41
2021/07/25 03:33:42;;;;;;;20.63;9.90;;;;;;;;;;6302403;22;20003;-41
2021/07/25 03:36:07;;;;;;;9.90;7.07;;;;;;;;;;6302315;22;20421;-41
2021/07/25 03:38:32;;;;;;;14.98;7.68;;;;;;;;;;6302142;22;20003;-41
2021/07/25 03:41:02;;;;;;;10.45;6.50;;;;;;;;;;6302169;22;19996;-43
2021/07/25 03:43:28;;;;;;;12.45;7.45;;;;;;;;;;6302624;22;20002;-43
2021/07/25 03:45:53;;;;;;;12.05;6.82;;;;;;;;;;6302588;22;20022;-44
2021/07/25 03:48:19;;;;;;;13.15;7.95;;;;;;;;;;6302240;22;20409;-42
2021/07/25 03:50:45;;;;;;;15.18;9.02;;;;;;;;;;6302341;22;20029;-42
2021/07/25 03:53:10;;;;;;;7.18;6.47;;;;;;;;;;6302118;22;20471;-41
2021/07/25 03:55:36;;;;;;;12.98;6.57;;;;;;;;;;6302076;22;19999;-42
2021/07/25 03:58:02;;;;;;;17.10;8.07;;;;;;;;;;6302374;22;20010;-41
2021/07/25 04:00:27;;;;;;;34.40;8.65;;;;;;;;;;6302469;22;20128;-42
2021/07/25 04:02:53;;;;;;;10.85;7.65;;;;;;;;;;6302123;22;20808;-43
2021/07/25 04:05:18;;;;;;;12.15;7.75;;;;;;;;;;6302125;22;20060;-44
2021/07/25 04:07:43;;;;;;;8.23;7.07;;;;;;;;;;6302292;22;20298;-42
2021/07/25 04:10:09;;;;;;;10.63;6.72;;;;;;;;;;6302303;22;19999;-41
2021/07/25 04:12:34;;;;;;;11.45;9.00;;;;;;;;;;6302001;22;20446;-41
2021/07/25 04:15:00;;;;;;;14.65;6.70;;;;;;;;;;6302227;22;20053;-41
2021/07/25 04:17:26;;;;;;;24.58;8.90;;;;;;;;;;6301747;22;20470;-44
2021/07/25 04:19:51;;;;;;;11.80;7.60;;;;;;;;;;6302157;22;20007;-43
2021/07/25 04:22:16;;;;;;;28.77;8.73;;;;;;;;;;6302491;22;20083;-47
2021/07/25 04:24:41;;;;;;;8.57;7.00;;;;;;;;;;6301825;22;19995;-43
2021/07/25 04:27:07;;;;;;;17.67;8.60;;;;;;;;;;6301984;22;20002;-44
2021/07/25 04:29:32;;;;;;;18.70;8.02;;;;;;;;;;6301784;22;20343;-43
2021/07/25 04:31:58;;;;;;;12.27;6.88;;;;;;;;;;6301585;22;20082;-45
2021/07/25 04:34:24;;;;;;;15.07;8.10;;;;;;;;;;6301540;22;20102;-43
2021/07/25 04:36:50;;;;;;;11.23;6.55;;;;;;;;;;6302443;22;20420;-43
2021/07/25 04:39:15;;;;;;;9.18;7.53;;;;;;;;;;6301692;22;20467;-44
2021/07/25 04:41:44;;;;;;;17.83;7.35;;;;;;;;;;6302142;22;20081;-45
2021/07/25 04:44:10;;;;;;;12.70;7.43;;;;;;;;;;6301857;22;20003;-44
2021/07/25 04:46:37;;;;;;;10.85;8.45;;;;;;;;;;6301951;22;20026;-45
2021/07/25 04:49:07;;;;;;;18.30;7.57;;;;;;;;;;6301809;22;20042;-45
2021/07/25 04:51:35;;;;;;;11.50;7.50;;;;;;;;;;6301858;22;20364;-44
2021/07/25 04:54:08;;;;;;;14.00;6.82;;;;;;;;;;6301155;22;20003;-43
2021/07/25 04:56:52;;;;;;;7.50;6.10;;;;;;;;;;6301386;22;19999;-44
2021/07/25 04:59:19;;;;;;;9.00;7.18;;;;;;;;;;6301431;22;20078;-44
2021/07/25 05:01:46;;;;;;;18.42;7.57;;;;;;;;;;6301336;22;19995;-47
2021/07/25 05:04:12;;;;;;;14.93;6.93;;;;;;;;;;6301861;22;20006;-44
2021/07/25 05:06:38;;;;;;;10.82;6.78;;;;;;;;;;6301376;22;20324;-42
2021/07/25 05:09:03;;;;;;;10.60;8.25;;;;;;;;;;6301726;22;19999;-43
2021/07/25 05:12:10;;;;;;;12.13;8.52;;;;;;;;;;6301325;22;20007;-43
2021/07/25 05:15:01;;;;;;;11.10;9.15;;;;;;;;;;6206251;23;20483;-44
2021/07/25 05:17:35;;;;;;;10.57;8.32;;;;;;;;;;6204015;23;20116;-44
2021/07/25 05:20:04;;;;;;;17.27;10.30;;;;;;;;;;6273450;22;20011;-45
2021/07/25 05:22:48;;;;;;;9.50;8.45;;;;;;;;;;6301426;22;20429;-45
2021/07/25 05:25:15;;;;;;;19.33;9.02;;;;;;;;;;6301024;22;20003;-48
2021/07/25 05:27:41;;;;;;;22.70;9.25;;;;;;;;;;6301407;22;20056;-44
2021/07/25 05:30:07;;;;;;;11.05;9.30;;;;;;;;;;6301159;22;19995;-43
2021/07/25 05:32:33;;;;;;;10.52;8.07;;;;;;;;;;6301060;22;20007;-42
2021/07/25 05:34:58;;;;;;;11.88;7.88;;;;;;;;;;6301122;22;19995;-44
2021/07/25 05:37:23;;;;;;;12.43;8.23;;;;;;;;;;6301748;22;20002;-44
2021/07/25 05:39:49;;;;;;;17.77;10.45;;;;;;;;;;6300952;22;20480;-45
2021/07/25 05:42:14;;;;;;;12.55;8.13;;;;;;;;;;6300912;22;20006;-41
2021/07/25 05:44:39;;;;;;;13.30;8.85;;;;;;;;;;6301424;22;20110;-43
2021/07/25 05:47:04;;;;;;;22.48;9.52;;;;;;;;;;6301251;22;19999;-44
2021/07/25 05:49:30;;;;;;;18.75;8.48;;;;;;;;;;6300988;22;20062;-42
2021/07/25 05:51:55;;;;;;;12.32;8.73;;;;;;;;;;6299381;22;20006;-40
2021/07/25 05:54:20;;;;;;;14.02;9.88;;;;;;;;;;6301325;22;19999;-42
2021/07/25 05:56:46;;;;;;;11.57;8.65;;;;;;;;;;6300600;22;20340;-41
2021/07/25 05:59:11;;;;;;;17.05;10.52;;;;;;;;;;6301126;22;20003;-41
2021/07/25 06:01:40;;;;;;;10.93;7.13;;;;;;;;;;6301150;22;20453;-43
2021/07/25 06:04:06;;;;;;;12.70;9.05;;;;;;;;;;6302556;22;19999;-44
2021/07/25 06:06:31;;;;;;;19.00;8.13;;;;;;;;;;6305017;22;20614;-44
2021/07/25 06:08:57;;;;;;;14.05;7.78;;;;;;;;;;6304223;22;20424;-43
2021/07/25 06:11:22;;;;;;;40.53;11.68;;;;;;;;;;6304680;22;20460;-42
2021/07/25 06:13:48;;;;;;;11.43;9.55;;;;;;;;;;6304775;22;20014;-43
2021/07/25 06:16:13;;;;;;;38.67;9.77;;;;;;;;;;6304256;22;20104;-48
2021/07/25 06:18:39;;;;;;;14.82;8.80;;;;;;;;;;6304098;22;20485;-47
2021/07/25 06:21:04;;;;;;;10.48;8.90;;;;;;;;;;6304338;22;20028;-41
2021/07/25 06:23:29;;;;;;;17.35;10.20;;;;;;;;;;6304739;22;19999;-43
2021/07/25 06:25:54;;;;;;;26.02;11.30;;;;;;;;;;6305028;22;20360;-43
2021/07/25 06:28:20;;;;;;;9.45;8.52;;;;;;;;;;6304629;22;20026;-41
2021/07/25 06:30:45;;;;;;;16.15;9.07;;;;;;;;;;6304457;22;20316;-41
2021/07/25 06:33:10;;;;;;;13.00;9.18;;;;;;;;;;6304260;22;20350;-42
2021/07/25 06:35:37;;;;;;;11.45;10.30;;;;;;;;;;6304786;22;19999;-43
2021/07/25 06:38:09;;;;;;;8.52;7.60;;;;;;;;;;6303957;22;20066;-42
2021/07/25 06:40:36;;;;;;;27.67;9.93;;;;;;;;;;6304547;22;19991;-41
2021/07/25 06:43:02;;;;;;;10.80;9.73;;;;;;;;;;6304152;22;19992;-41
2021/07/25 06:45:28;;;;;;;12.57;9.60;;;;;;;;;;6304220;22;19995;-42
2021/07/25 06:47:53;;;;;;;14.95;10.18;;;;;;;;;;6304058;22;19999;-45
2021/07/25 06:50:20;;;;;;;19.08;10.98;;;;;;;;;;6304416;22;20009;-42
2021/07/25 06:52:45;;;;;;;13.60;11.07;;;;;;;;;;6304447;22;20006;-41
2021/07/25 06:55:11;;;;;;;10.95;9.48;;;;;;;;;;6303874;22;20246;-42
2021/07/25 06:57:36;;;;;;;11.30;9.00;;;;;;;;;;6304287;22;20033;-48
2021/07/25 07:00:03;;;;;;;18.27;9.80;;;;;;;;;;6304178;22;20003;-43
2021/07/25 07:02:43;;;;;;;22.75;12.35;;;;;;;;;;6304596;22;20003;-44
2021/07/25 07:05:08;;;;;;;14.43;10.85;;;;;;;;;;6304009;22;19999;-41
2021/07/25 07:07:34;;;;;;;17.75;10.93;;;;;;;;;;6304147;22;19995;-42
2021/07/25 07:09:59;;;;;;;22.67;10.80;;;;;;;;;;6304163;22;20003;-41
2021/07/25 07:12:24;;;;;;;11.88;10.68;;;;;;;;;;6304342;22;20092;-42
2021/07/25 07:14:49;;;;;;;15.07;11.85;;;;;;;;;;6304496;22;20017;-43
2021/07/25 07:17:15;;;;;;;13.88;12.15;;;;;;;;;;6301922;22;20023;-48
2021/07/25 07:19:40;;;;;;;17.05;8.90;;;;;;;;;;6301931;22;20019;-47
2021/07/25 07:22:05;;;;;;;14.95;11.05;;;;;;;;;;6301962;22;20036;-47
2021/07/25 07:24:30;;;;;;;16.60;11.23;;;;;;;;;;6295283;22;20013;-44
2021/07/25 07:26:56;;;;;;;15.15;10.30;;;;;;;;;;6296909;22;20329;-47
2021/07/25 07:29:21;;;;;;;14.60;11.82;;;;;;;;;;6299309;22;20095;-49
2021/07/25 07:31:46;;;;;;;23.67;11.60;;;;;;;;;;6299256;22;20005;-44
2021/07/25 07:34:12;;;;;;;11.15;9.23;;;;;;;;;;6299112;22;20022;-43
2021/07/25 07:36:37;;;;;;;18.10;9.15;;;;;;;;;;6299265;22;20003;-45
2021/07/25 07:39:02;;;;;;;17.38;11.15;;;;;;;;;;6298539;22;20003;-43
2021/07/25 07:41:27;;;;;;;13.38;10.38;;;;;;;;;;6298354;22;20015;-45
2021/07/25 07:43:53;;;;;;;16.70;11.90;;;;;;;;;;6299121;22;19995;-46
2021/07/25 07:46:18;;;;;;;19.55;10.50;;;;;;;;;;6298487;22;20458;-45
2021/07/25 07:48:43;;;;;;;29.05;11.20;;;;;;;;;;6299274;22;20007;-47
2021/07/25 07:51:09;;;;;;;14.82;10.50;;;;;;;;;;6299056;22;20429;-47
2021/07/25 07:53:34;;;;;;;11.27;10.00;;;;;;;;;;6298524;22;20128;-43
2021/07/25 07:55:59;;;;;;;22.35;11.55;;;;;;;;;;6298855;22;20112;-43
2021/07/25 07:58:24;;;;;;;16.65;9.70;;;;;;;;;;6298646;22;20292;-47
2021/07/25 08:00:50;;;;;;;18.17;9.93;;;;;;;;;;6298288;22;20007;-45
2021/07/25 08:03:15;;;;;;;16.73;9.50;;;;;;;;;;6299291;22;19991;-42
2021/07/25 08:05:40;;;;;;;14.32;9.15;;;;;;;;;;6299240;22;19999;-46
2021/07/25 08:08:06;;;;;;;13.15;9.68;;;;;;;;;;6298681;22;20377;-44
2021/07/25 08:10:31;;;;;;;10.75;9.63;;;;;;;;;;6298508;22;20355;-49
2021/07/25 08:12:56;;;;;;;13.85;10.45;;;;;;;;;;6298867;22;20003;-41
2021/07/25 08:15:22;;;;;;;9.75;6.97;;;;;;;;;;6298417;22;20515;-43
2021/07/25 08:17:47;;;;;;;21.02;8.68;;;;;;;;;;6299011;22;20019;-40
2021/07/25 08:20:13;;;;;;;13.20;9.18;;;;;;;;;;6298955;22;19999;-44
2021/07/25 08:22:38;;;;;;;18.08;8.02;;;;;;;;;;6298463;22;19999;-38
2021/07/25 08:25:04;;;;;;;12.52;7.55;;;;;;;;;;6298468;22;20003;-40
2021/07/25 08:27:29;;;;;;;8.45;7.57;;;;;;;;;;6297756;22;20441;-44
2021/07/25 08:29:55;;;;;;;12.73;6.35;;;;;;;;;;6298449;22;19999;-43
2021/07/25 08:32:20;;;;;;;20.35;8.05;;;;;;;;;;6298581;22;20483;-43
2021/07/25 08:34:45;;;;;;;15.15;8.55;;;;;;;;;;6298133;22;20003;-47
2021/07/25 08:37:11;;;;;;;14.25;6.43;;;;;;;;;;6298266;22;20090;-43
2021/07/25 08:39:36;;;;;;;10.32;7.15;;;;;;;;;;6297781;22;20030;-45
2021/07/25 08:42:12;;;;;;;11.07;6.95;;;;;;;;;;6298114;22;19999;-42
2021/07/25 08:44:54;;;;;;;8.77;4.97;;;;;;;;;;6298044;22;19999;-43
2021/07/25 08:47:21;;;;;;;10.88;5.95;;;;;;;;;;6297906;22;20041;-46
2021/07/25 08:49:49;;;;;;;9.50;6.05;;;;;;;;;;6298292;22;20231;-45
2021/07/25 08:52:23;;;;;;;13.32;5.70;;;;;;;;;;6298628;22;20007;-44
2021/07/25 08:54:48;;;;;;;11.60;5.95;;;;;;;;;;6297676;22;20061;-43
2021/07/25 08:57:16;;;;;;;5.07;3.65;;;;;;;;;;6298171;22;20007;-44
2021/07/25 08:59:42;;;;;;;6.32;4.47;;;;;;;;;;6297688;22;20488;-45
2021/07/25 09:02:13;;;;;;;12.05;4.80;;;;;;;;;;6297519;22;20083;-49
2021/07/25 09:04:38;;;;;;;10.52;5.72;;;;;;;;;;6297953;22;19995;-46
2021/07/25 09:07:06;;;;;;;7.00;5.88;;;;;;;;;;6298968;22;20003;-48
2021/07/25 09:09:32;;;;;;;8.40;5.80;;;;;;;;;;6298100;22;20246;-43
2021/07/25 09:11:58;;;;;;;9.05;5.15;;;;;;;;;;6297446;22;20003;-49
2021/07/25 09:14:23;;;;;;;7.53;4.22;;;;;;;;;;6297572;22;20060;-45
2021/07/25 09:16:48;;;;;;;8.35;6.82;;;;;;;;;;6297232;22;20023;-45
2021/07/25 09:19:13;;;;;;;9.00;5.93;;;;;;;;;;6298309;22;20018;-44
2021/07/25 09:21:39;;;;;;;6.28;4.22;;;;;;;;;;6297977;22;19999;-42
2021/07/25 09:24:13;;;;;;;7.88;4.68;;;;;;;;;;6297903;22;20003;-42
2021/07/25 09:27:08;;;;;;;2.88;2.20;;;;;;;;;;6297714;22;19999;-42
2021/07/25 09:29:34;;;;;;;8.70;4.85;;;;;;;;;;6276943;22;19999;-43
2021/07/25 09:32:09;;;;;;;5.07;4.00;;;;;;;;;;6297289;22;20067;-43
2021/07/25 09:34:41;;;;;;;5.22;4.18;;;;;;;;;;6297538;22;20022;-43
2021/07/25 09:37:08;;;;;;;13.63;3.88;;;;;;;;;;6296012;22;20080;-46
2021/07/25 09:39:41;;;;;;;10.43;5.30;;;;;;;;;;6296193;22;20010;-43
2021/07/25 09:42:07;;;;;;;7.30;3.90;;;;;;;;;;6296985;22;20003;-44
2021/07/25 09:44:48;;;;;;;14.32;3.65;;;;;;;;;;6297129;22;19999;-43
2021/07/25 09:47:44;;;;;;;15.02;5.90;;;;;;;;;;6296920;22;19996;-45
2021/07/25 09:50:10;;;;;;;10.10;3.22;;;;;;;;;;6278642;22;20003;-46
2021/07/25 09:52:36;;;;;;;4.20;2.72;;;;;;;;;;6297444;22;20000;-44
2021/07/25 09:55:03;;;;;;;5.03;2.78;;;;;;;;;;6297493;22;20007;-45
2021/07/25 09:57:29;;;;;;;13.88;4.57;;;;;;;;;;6297949;22;20048;-44
2021/07/25 09:59:56;;;;;;;9.60;5.50;;;;;;;;;;6297583;22;19999;-48
2021/07/25 10:02:32;;;;;;;5.18;3.78;;;;;;;;;;6297592;22;20014;-41
2021/07/25 10:05:18;;;;;;;21.17;5.22;;;;;;;;;;6296771;22;19995;-44
2021/07/25 10:07:44;;;;;;;6.55;3.50;;;;;;;;;;6295718;22;20474;-42
2021/07/25 10:10:11;;;;;;;10.77;3.55;;;;;;;;;;6296658;22;20017;-45
2021/07/25 10:12:38;;;;;;;7.10;3.10;;;;;;;;;;6296681;22;20064;-44
2021/07/25 10:15:04;;;;;;;9.32;4.55;;;;;;;;;;6296549;22;20078;-43
2021/07/25 10:17:33;;;;;;;12.95;4.13;;;;;;;;;;6295886;22;20015;-42
2021/07/25 10:19:59;;;;;;;12.38;2.58;;;;;;;;;;6296827;22;20035;-47
2021/07/25 10:22:27;;;;;;;7.28;3.17;;;;;;;;;;6297168;22;19991;-44
2021/07/25 10:24:54;;;;;;;8.13;4.68;;;;;;;;;;6297244;22;20437;-45
2021/07/25 10:27:20;;;;;;;18.80;6.15;;;;;;;;;;6297226;22;20003;-42
2021/07/25 10:29:46;;;;;;;7.43;4.80;;;;;;;;;;6297158;22;20340;-42
2021/07/25 10:32:11;;;;;;;12.82;5.95;;;;;;;;;;6297218;22;20337;-42
2021/07/25 10:34:38;;;;;;;15.95;8.35;;;;;;;;;;6297412;22;20314;-44
2021/07/25 10:37:03;;;;;;;14.23;5.43;;;;;;;;;;6297375;22;20011;-45
2021/07/25 10:39:30;;;;;;;27.00;6.22;;;;;;;;;;6296946;22;20450;-44
2021/07/25 10:41:58;;;;;;;12.77;6.60;;;;;;;;;;6296889;22;20053;-43
2021/07/25 10:44:23;;;;;;;16.33;6.60;;;;;;;;;;6297338;22;20006;-42
2021/07/25 10:46:49;;;;;;;24.52;6.80;;;;;;;;;;6297164;22;19999;-42
2021/07/25 10:49:15;;;;;;;10.73;4.85;;;;;;;;;;6297210;22;19999;-42
2021/07/25 10:51:56;;;;;;;14.20;6.85;;;;;;;;;;6298903;22;20523;-41
2021/07/25 10:54:24;;;;;;;6.10;4.15;;;;;;;;;;6299445;22;20502;-41
2021/07/25 10:57:10;;;;;;;13.60;5.88;;;;;;;;;;6299557;22;20055;-42
2021/07/25 10:59:35;;;;;;;18.48;6.50;;;;;;;;;;6300791;22;20070;-43
2021/07/25 11:02:01;;;;;;;11.32;5.75;;;;;;;;;;6302412;22;20045;-43
2021/07/25 11:04:45;;;;;;;11.70;5.43;;;;;;;;;;6302187;22;19988;-43
2021/07/25 11:07:22;;;;;;;5.55;3.20;;;;;;;;;;6301764;22;19995;-43
2021/07/25 11:09:54;;;;;;;7.82;4.22;;;;;;;;;;6302090;22;20026;-43
2021/07/25 11:12:20;;;;;;;9.52;4.97;;;;;;;;;;6300033;22;20048;-43
2021/07/25 11:15:11;;;;;;;22.75;6.10;;;;;;;;;;6299391;22;20750;-43
2021/07/25 11:17:45;;;;;;;6.35;4.18;;;;;;;;;;6295363;22;20019;-43
2021/07/25 11:20:34;;;;;;;11.63;5.13;;;;;;;;;;6300390;22;20003;-43
2021/07/25 11:23:00;;;;;;;8.15;4.32;;;;;;;;;;6255553;22;19999;-43
2021/07/25 11:25:35;;;;;;;7.68;4.90;;;;;;;;;;6300498;22;20064;-43
2021/07/25 11:28:04;;;;;;;7.30;3.83;;;;;;;;;;6300829;22;19999;-43
2021/07/25 11:30:48;;;;;;;14.95;5.78;;;;;;;;;;6301630;22;19999;-43
2021/07/25 11:33:32;;;;;;;8.52;3.92;;;;;;;;;;6302427;22;20003;-43
2021/07/25 11:35:57;;;;;;;7.10;4.10;;;;;;;;;;6302589;22;19995;-43
2021/07/25 11:38:23;;;;;;;4.25;2.42;;;;;;;;;;6302888;22;20014;-43
2021/07/25 11:40:53;;;;;;;17.45;4.38;;;;;;;;;;6302368;22;20003;-43
2021/07/25 11:43:18;;;;;;;4.15;2.70;;;;;;;;;;6303035;22;19999;-43
2021/07/25 11:45:43;;;;;;;11.80;4.00;;;;;;;;;;6302277;22;20097;-42
2021/07/25 11:48:19;;;;;;;6.95;4.32;;;;;;;;;;6302489;22;19992;-43
2021/07/25 11:50:44;;;;;;;7.28;3.63;;;;;;;;;;6302628;22;20057;-42
2021/07/25 11:53:09;;;;;;;14.73;4.45;;;;;;;;;;6302725;22;20366;-43
2021/07/25 11:55:35;;;;;;;5.32;3.38;;;;;;;;;;6302629;22;19999;-43
2021/07/25 11:58:10;;;;;;;9.93;4.63;;;;;;;;;;6302278;22;20491;-43
2021/07/25 12:00:35;;;;;;;5.88;3.42;;;;;;;;;;6302390;22;20002;-43
2021/07/25 12:03:00;;;;;;;7.30;4.18;;;;;;;;;;6301737;22;19999;-43
2021/07/25 12:05:27;;;;;;;15.65;4.78;;;;;;;;;;6302106;22;20003;-43
2021/07/25 12:07:52;;;;;;;4.68;3.55;;;;;;;;;;6301984;22;19992;-43
2021/07/25 12:10:31;;;;;;;8.52;3.60;;;;;;;;;;6302166;22;20003;-44
2021/07/25 12:13:03;;;;;;;11.27;3.38;;;;;;;;;;6302716;22;20003;-43
2021/07/25 12:15:29;;;;;;;6.32;4.45;;;;;;;;;;6302185;22;20006;-43
2021/07/25 12:17:55;;;;;;;6.45;3.13;;;;;;;;;;6301897;22;20030;-43
2021/07/25 12:20:28;;;;;;;8.80;4.20;;;;;;;;;;6301861;22;20464;-43
2021/07/25 12:22:56;;;;;;;5.32;3.80;;;;;;;;;;6301960;22;20048;-43
2021/07/25 12:25:23;;;;;;;10.45;3.92;;;;;;;;;;6302118;22;20023;-43
2021/07/25 12:28:09;;;;;;;9.55;2.95;;;;;;;;;;6301740;22;20436;-43
2021/07/25 12:30:38;;;;;;;4.72;3.75;;;;;;;;;;6302294;22;20049;-42
2021/07/25 12:33:04;;;;;;;8.25;4.43;;;;;;;;;;6302031;22;20025;-43
2021/07/25 12:35:31;;;;;;;6.55;3.50;;;;;;;;;;6302555;22;19995;-44
2021/07/25 12:37:59;;;;;;;9.85;3.38;;;;;;;;;;6302083;22;20766;-43
2021/07/25 12:40:24;;;;;;;8.63;3.45;;;;;;;;;;6301749;22;20060;-44
2021/07/25 12:42:52;;;;;;;13.27;4.00;;;;;;;;;;6301829;22;20082;-43
2021/07/25 12:45:21;;;;;;;7.03;2.88;;;;;;;;;;6302397;22;19995;-41
2021/07/25 12:47:46;;;;;;;6.88;3.65;;;;;;;;;;6301762;22;19991;-43
2021/07/25 12:50:11;;;;;;;7.63;3.67;;;;;;;;;;6301974;22;20078;-42
2021/07/25 12:52:36;;;;;;;5.82;3.35;;;;;;;;;;6301815;22;20367;-42
2021/07/25 12:55:02;;;;;;;6.80;4.22;;;;;;;;;;6302262;22;20003;-42
2021/07/25 12:57:27;;;;;;;7.68;3.00;;;;;;;;;;6301574;22;20046;-42
2021/07/25 12:59:52;;;;;;;5.03;3.58;;;;;;;;;;6301261;22;20052;-42
2021/07/25 13:05:02;;;;;;;8.63;4.68;;;;;;;;;;6301928;22;20038;-43
2021/07/25 13:07:27;;;;;;;4.72;3.35;;;;;;;;;;6301601;22;19991;-43
2021/07/25 13:09:52;;;;;;;9.27;3.67;;;;;;;;;;6301817;22;19999;-43
2021/07/25 13:12:17;;;;;;;10.45;3.25;;;;;;;;;;6301726;22;20072;-42
2021/07/25 13:14:43;;;;;;;3.78;2.63;;;;;;;;;;6302095;22;20007;-43
2021/07/25 13:17:08;;;;;;;9.18;3.60;;;;;;;;;;6301995;22;20084;-44
2021/07/25 13:19:33;;;;;;;7.68;3.90;;;;;;;;;;6301962;22;20047;-42
2021/07/25 13:21:58;;;;;;;7.57;4.32;;;;;;;;;;6302363;22;20023;-44
2021/07/25 13:24:25;;;;;;;8.98;4.13;;;;;;;;;;6301982;22;20407;-42
2021/07/25 13:26:50;;;;;;;9.60;4.75;;;;;;;;;;6301767;22;19995;-42
2021/07/25 13:29:15;;;;;;;8.15;4.43;;;;;;;;;;6302499;22;20006;-43
2021/07/25 13:31:41;;;;;;;8.43;3.85;;;;;;;;;;6302221;22;20007;-43
2021/07/25 13:34:06;;;;;;;12.20;2.92;;;;;;;;;;6301872;22;20052;-43
2021/07/25 13:36:32;;;;;;;9.63;4.05;;;;;;;;;;6302383;22;19995;-43
2021/07/25 13:38:57;;;;;;;5.28;3.38;;;;;;;;;;6301830;22;20424;-43
2021/07/25 13:41:23;;;;;;;4.45;3.38;;;;;;;;;;6302340;22;19995;-43
2021/07/25 13:43:51;;;;;;;9.77;4.03;;;;;;;;;;6301836;22;20460;-43
2021/07/25 13:46:19;;;;;;;4.72;2.90;;;;;;;;;;6302745;22;20044;-43
2021/07/25 13:48:45;;;;;;;14.82;3.15;;;;;;;;;;6302266;22;20003;-44
2021/07/25 13:51:12;;;;;;;9.98;5.28;;;;;;;;;;6302316;22;20003;-43
2021/07/25 13:53:38;;;;;;;7.38;3.40;;;;;;;;;;6302024;22;19999;-43
2021/07/25 13:56:04;;;;;;;8.25;3.83;;;;;;;;;;6302063;22;20003;-43
2021/07/25 13:58:29;;;;;;;5.70;3.95;;;;;;;;;;6301819;22;20021;-44
2021/07/25 14:00:55;;;;;;;5.85;4.40;;;;;;;;;;6301618;22;20486;-44
2021/07/25 14:03:20;;;;;;;7.03;3.88;;;;;;;;;;6302254;22;20044;-43
2021/07/25 14:05:45;;;;;;;5.68;3.60;;;;;;;;;;6302301;22;20519;-43
2021/07/25 14:08:11;;;;;;;5.07;3.58;;;;;;;;;;6302370;22;20340;-46
2021/07/25 14:10:36;;;;;;;5.18;2.45;;;;;;;;;;6301737;22;20006;-47
2021/07/25 14:13:02;;;;;;;9.23;3.60;;;;;;;;;;6301933;22;19995;-43
2021/07/25 14:15:27;;;;;;;4.47;2.90;;;;;;;;;;6301844;22;20477;-42
2021/07/25 14:17:53;;;;;;;11.77;3.95;;;;;;;;;;6301349;22;20015;-43
2021/07/25 14:20:22;;;;;;;6.93;3.92;;;;;;;;;;6301332;22;20095;-45
2021/07/25 14:22:48;;;;;;;8.77;3.92;;;;;;;;;;6302264;22;19995;-34
2021/07/25 14:25:14;;;;;;;9.75;4.55;;;;;;;;;;6302527;22;20588;-34
2021/07/25 14:27:39;;;;;;;7.28;3.63;;;;;;;;;;6303704;22;20010;-34
2021/07/25 14:30:05;;;;;;;4.82;3.35;;;;;;;;;;6303804;22;19999;-34
2021/07/25 14:32:31;;;;;;;6.82;3.58;;;;;;;;;;6304224;22;20003;-34
2021/07/25 14:34:56;;;;;;;5.85;4.05;;;;;;;;;;6303700;22;20480;-34
2021/07/25 14:37:21;;;;;;;4.80;2.78;;;;;;;;;;6303568;22;20003;-35